Terminal Aerodrome Forecast
Issued by NWS Huntsville, AL

Home | Current Version | Previous Version | Text Only | Print | Product List | Glossary On
Versions: 1 2 3 4 5 6 7 8 9 10 11 12 13 14 15
000
FTUS44 KHUN 280520
TAFHSV
TAF
KHSV 280520Z 2806/2906 18005KT P6SM SCT015 BKN150
     FM281500 21010KT P6SM VCSH SCT015 BKN050
     FM281800 25015G25KT 5SM -SHRA BR SCT010 OVC040
      TEMPO 2820/2824 3SM -TSRA BR BKN015CB=

USA.gov is the U.S. government's official web portal to all federal, state and local government web resources and services.